Time;durP1;ratioP1;P1;durP2;ratioP2;P2;SDS_P1;SDS_P2;PMS_P1;PMS_P2;Temp;Humidity;BMP_temperature;BMP_pressure;BME280_temperature;BME280_humidity;BME280_pressure;Samples;Min_cycle;Max_cycle;Signal;HPM_P1;HPM_P2
2022/09/28 00:00:02;;;;;;;5.75;1.60;;;;;;;13.58;82.00;95439.66;5096034;28;20048;-63
2022/09/28 00:02:29;;;;;;;6.50;1.50;;;;;;;13.53;81.85;95432.09;5096098;28;20573;-63
2022/09/28 00:04:58;;;;;;;3.22;1.60;;;;;;;13.51;82.48;95432.19;5095885;28;20452;-64
2022/09/28 00:07:25;;;;;;;5.80;1.60;;;;;;;13.46;82.29;95434.25;5095836;28;20481;-64
2022/09/28 00:09:52;;;;;;;2.80;1.55;;;;;;;13.43;82.10;95423.97;5095760;28;20131;-64
2022/09/28 00:12:20;;;;;;;1.55;1.42;;;;;;;13.39;82.64;95428.56;5095845;28;20058;-64
2022/09/28 00:14:47;;;;;;;2.42;1.70;;;;;;;13.27;83.31;95432.00;5095635;28;20429;-64
2022/09/28 00:17:15;;;;;;;6.40;1.52;;;;;;;13.24;83.64;95430.44;5095650;28;20056;-64
2022/09/28 00:19:43;;;;;;;3.65;1.35;;;;;;;13.19;83.55;95432.53;5095662;28;20054;-64
2022/09/28 00:22:12;;;;;;;2.35;1.60;;;;;;;13.16;83.53;95445.03;5095703;28;20048;-64
2022/09/28 00:24:40;;;;;;;1.65;1.55;;;;;;;13.12;83.31;95439.97;5095520;28;20556;-64
2022/09/28 00:27:08;;;;;;;4.72;1.50;;;;;;;13.11;83.30;95447.94;5095431;28;20047;-63
2022/09/28 00:29:37;;;;;;;4.63;1.55;;;;;;;13.12;83.22;95454.88;5095455;28;20048;-64
2022/09/28 00:32:06;;;;;;;7.10;1.63;;;;;;;13.14;83.29;95453.00;5095485;28;20052;-64
2022/09/28 00:34:36;;;;;;;6.90;1.50;;;;;;;13.11;83.10;95446.16;5095320;28;20135;-63
2022/09/28 00:37:07;;;;;;;4.65;1.33;;;;;;;13.10;82.40;95443.66;5095353;28;20083;-64
2022/09/28 00:39:37;;;;;;;3.70;1.50;;;;;;;12.99;81.76;95439.94;5095186;28;20105;-63
2022/09/28 00:42:14;;;;;;;3.65;1.45;;;;;;;12.95;82.06;95442.84;5095370;28;20084;-64
2022/09/28 00:44:44;;;;;;;5.22;1.60;;;;;;;12.89;82.05;95438.84;5095099;28;20139;-64
2022/09/28 00:47:37;;;;;;;1.50;1.23;;;;;;;12.88;82.16;95440.63;5095240;28;20105;-64
2022/09/28 00:50:11;;;;;;;2.17;1.67;;;;;;;12.83;82.52;95437.47;5094905;28;20056;-64
2022/09/28 00:52:42;;;;;;;6.30;1.70;;;;;;;12.81;83.46;95434.09;5094957;28;20044;-64
2022/09/28 00:55:16;;;;;;;7.38;1.90;;;;;;;12.82;82.67;95432.34;5094895;28;20040;-64
2022/09/28 00:57:48;;;;;;;2.60;1.58;;;;;;;12.81;81.60;95428.00;5095017;28;20048;-63
2022/09/28 01:00:16;;;;;;;1.98;1.40;;;;;;;12.77;81.80;95427.38;5094336;28;20083;-64
2022/09/28 01:02:44;;;;;;;2.42;1.20;;;;;;;12.76;82.06;95433.53;5094770;28;20537;-64
2022/09/28 01:05:12;;;;;;;2.17;1.88;;;;;;;12.75;82.26;95437.13;5094823;28;20376;-64
2022/09/28 01:07:41;;;;;;;1.67;1.55;;;;;;;12.73;81.91;95436.38;5094698;28;20070;-64
2022/09/28 01:10:09;;;;;;;2.17;1.20;;;;;;;12.73;82.16;95442.47;5094525;28;20143;-64
2022/09/28 01:12:38;;;;;;;3.63;1.50;;;;;;;12.70;81.65;95436.59;5094631;28;20044;-64
2022/09/28 01:15:06;;;;;;;9.43;1.35;;;;;;;12.67;81.59;95437.59;5094341;28;20131;-64
2022/09/28 01:17:49;;;;;;;3.03;1.52;;;;;;;12.58;81.32;95432.97;5094538;28;20131;-63
2022/09/28 01:20:42;;;;;;;1.50;1.40;;;;;;;12.41;81.97;95428.78;5094524;28;20391;-64
2022/09/28 01:23:39;;;;;;;3.33;1.50;;;;;;;12.30;81.25;95418.94;5094370;28;20079;-64
2022/09/28 01:26:45;;;;;;;2.33;1.70;;;;;;;12.18;82.17;95416.19;5094379;28;20048;-64
2022/09/28 01:29:18;;;;;;;2.67;1.60;;;;;;;12.14;82.60;95414.69;5094184;28;20087;-64
2022/09/28 01:31:51;;;;;;;2.97;1.45;;;;;;;12.10;82.29;95410.59;5094170;28;20048;-64
2022/09/28 01:34:25;;;;;;;2.35;1.45;;;;;;;12.03;82.61;95410.06;5094170;28;20501;-64
2022/09/28 01:36:55;;;;;;;1.60;1.50;;;;;;;12.00;83.03;95405.03;5094136;28;20050;-63
2022/09/28 01:39:26;;;;;;;5.22;1.60;;;;;;;11.99;82.91;95409.44;5094134;28;20095;-64
2022/09/28 01:41:59;;;;;;;6.07;1.92;;;;;;;12.00;84.99;95412.88;5094084;28;20052;-63
2022/09/28 01:44:30;;;;;;;5.35;1.80;;;;;;;12.03;85.60;95407.44;5093897;28;20079;-64
2022/09/28 01:47:02;;;;;;;2.67;1.75;;;;;;;12.06;84.38;95409.88;5094040;28;20071;-64
2022/09/28 01:49:35;;;;;;;2.03;1.83;;;;;;;12.07;83.99;95408.97;5094090;28;20047;-63
2022/09/28 01:52:10;;;;;;;3.20;1.85;;;;;;;12.08;83.99;95408.06;5093747;28;20117;-64
2022/09/28 01:54:43;;;;;;;2.67;1.60;;;;;;;12.06;83.49;95409.88;5093942;28;20481;-63
2022/09/28 02:07:53;;;;;;;4.72;1.92;;;;;;;12.72;78.25;95426.81;5091165;27;20378;-65
2022/09/28 02:10:24;;;;;;;7.30;2.00;;;;;;;12.55;78.04;95427.91;5090700;28;20044;-64
2022/09/28 02:12:57;;;;;;;1.70;1.60;;;;;;;12.38;78.46;95433.25;5090555;28;20455;-64
2022/09/28 02:15:30;;;;;;;7.53;1.60;;;;;;;12.25;78.59;95430.59;5090542;28;20055;-64
2022/09/28 02:17:57;;;;;;;8.73;1.80;;;;;;;12.14;79.21;95435.66;5090433;28;20055;-64
2022/09/28 02:20:26;;;;;;;2.95;1.52;;;;;;;12.08;79.41;95436.88;5090312;28;20336;-64
2022/09/28 02:22:56;;;;;;;3.47;1.70;;;;;;;12.03;79.73;95436.28;5090319;28;20041;-64
2022/09/28 02:25:30;;;;;;;5.28;1.88;;;;;;;11.98;79.77;95426.06;5090463;28;20090;-64
2022/09/28 02:28:00;;;;;;;5.13;2.00;;;;;;;11.89;80.42;95418.78;5090156;28;20044;-64
2022/09/28 02:30:27;;;;;;;2.75;1.50;;;;;;;11.91;80.88;95423.91;5090334;28;20052;-64
2022/09/28 02:32:58;;;;;;;1.92;1.83;;;;;;;11.84;81.24;95421.69;5090106;28;20087;-64
2022/09/28 02:35:25;;;;;;;2.30;2.08;;;;;;;11.78;80.62;95422.06;5090172;28;20044;-64
2022/09/28 02:37:53;;;;;;;6.22;1.60;;;;;;;11.71;81.28;95416.34;5090053;28;20048;-65
2022/09/28 02:40:25;;;;;;;1.70;1.60;;;;;;;11.69;81.61;95430.47;5090054;28;20121;-64
2022/09/28 02:43:05;;;;;;;2.45;1.80;;;;;;;11.67;81.68;95427.09;5089950;28;20041;-64
2022/09/28 02:45:53;;;;;;;7.07;2.20;;;;;;;11.62;82.11;95430.84;5090242;28;20048;-64
2022/09/28 02:48:38;;;;;;;6.10;1.60;;;;;;;11.60;82.33;95429.25;5089853;28;20547;-65
2022/09/28 02:51:15;;;;;;;9.95;1.92;;;;;;;11.53;81.70;95430.56;5089859;28;20051;-64
2022/09/28 02:53:59;;;;;;;4.63;1.85;;;;;;;11.48;81.85;95423.81;5089764;28;20071;-64
2022/09/28 02:56:48;;;;;;;2.85;1.88;;;;;;;11.46;81.77;95423.06;5089636;28;20105;-64
2022/09/28 02:59:28;;;;;;;4.82;2.05;;;;;;;11.43;81.49;95428.47;5089520;28;20075;-65
2022/09/28 03:02:03;;;;;;;2.85;1.35;;;;;;;11.45;83.20;95431.88;5089471;28;20074;-64
2022/09/28 03:04:40;;;;;;;5.53;2.00;;;;;;;11.42;84.04;95431.19;5089676;28;20044;-64
2022/09/28 03:07:13;;;;;;;2.38;2.03;;;;;;;11.45;84.36;95431.00;5084448;28;20045;-64
2022/09/28 03:09:49;;;;;;;3.28;1.92;;;;;;;11.45;83.71;95433.63;5075908;28;20592;-64
2022/09/28 03:12:22;;;;;;;5.75;2.28;;;;;;;11.42;83.64;95434.66;5075926;28;20049;-64
2022/09/28 03:15:06;;;;;;;6.38;2.08;;;;;;;11.38;83.61;95435.78;5076137;28;20045;-64
2022/09/28 03:17:33;;;;;;;2.90;1.73;;;;;;;11.35;83.27;95433.34;5075784;28;20049;-64
2022/09/28 03:20:00;;;;;;;5.40;2.05;;;;;;;11.32;83.52;95441.38;5075714;28;20127;-64
2022/09/28 03:22:27;;;;;;;2.22;2.00;;;;;;;11.32;83.02;95439.56;5075858;28;20444;-64
2022/09/28 03:24:54;;;;;;;2.53;2.13;;;;;;;11.28;82.82;95445.94;5075594;28;20563;-64
2022/09/28 03:27:22;;;;;;;4.00;1.90;;;;;;;11.21;82.92;95447.22;5075634;28;20048;-64
2022/09/28 03:29:49;;;;;;;2.90;2.00;;;;;;;11.24;83.45;95447.91;5076072;28;20105;-64
2022/09/28 03:32:16;;;;;;;3.85;2.20;;;;;;;11.24;83.45;95445.28;5075455;28;20049;-64
2022/09/28 03:34:43;;;;;;;6.47;2.10;;;;;;;11.13;83.13;95439.81;5075437;28;20075;-64
2022/09/28 03:37:11;;;;;;;2.20;1.85;;;;;;;11.12;83.37;95435.50;5075601;28;20052;-64
2022/09/28 03:39:38;;;;;;;7.30;2.08;;;;;;;11.10;83.37;95434.75;5075565;28;20451;-64
2022/09/28 03:42:05;;;;;;;3.85;1.80;;;;;;;11.12;83.31;95440.75;5075424;28;20045;-63
2022/09/28 03:44:34;;;;;;;2.83;1.95;;;;;;;11.10;83.84;95442.59;5075349;28;20088;-63
2022/09/28 03:47:01;;;;;;;5.18;2.25;;;;;;;11.08;84.35;95431.41;5075220;28;20087;-64
2022/09/28 03:49:28;;;;;;;6.07;1.92;;;;;;;11.08;84.32;95432.22;5075398;28;20406;-64
2022/09/28 03:51:55;;;;;;;4.80;1.58;;;;;;;11.06;84.17;95423.63;5075468;28;20045;-64
2022/09/28 03:54:22;;;;;;;5.70;1.73;;;;;;;11.07;84.06;95427.94;5075437;28;20056;-64
2022/09/28 03:56:49;;;;;;;6.60;2.10;;;;;;;11.01;84.09;95432.69;5075066;28;20056;-64
2022/09/28 03:59:16;;;;;;;7.32;2.45;;;;;;;10.99;84.47;95441.44;5075226;28;20056;-64
2022/09/28 04:01:45;;;;;;;3.28;2.00;;;;;;;10.99;85.07;95449.28;5075177;28;20055;-64
2022/09/28 04:04:12;;;;;;;2.58;2.05;;;;;;;11.01;84.17;95454.44;5075023;28;20404;-63
2022/09/28 04:06:40;;;;;;;6.75;2.08;;;;;;;10.95;84.39;95447.78;5074804;28;20044;-64
2022/09/28 04:09:07;;;;;;;2.10;1.88;;;;;;;10.89;83.80;95455.97;5074877;28;20127;-64
2022/09/28 04:11:35;;;;;;;14.43;2.20;;;;;;;10.87;84.05;95453.44;5074860;28;20110;-64
2022/09/28 04:14:02;;;;;;;10.57;2.13;;;;;;;10.76;84.49;95460.22;5074753;28;20518;-64
2022/09/28 04:16:30;;;;;;;6.10;2.42;;;;;;;10.74;84.71;95460.31;5074879;28;20091;-64
2022/09/28 04:18:59;;;;;;;4.88;1.92;;;;;;;10.80;84.99;95462.56;5074030;28;20049;-64
2022/09/28 04:21:27;;;;;;;2.35;1.85;;;;;;;10.79;84.53;95460.03;5074655;28;20074;-63
2022/09/28 04:23:54;;;;;;;2.95;1.60;;;;;;;10.81;84.40;95459.03;5074906;28;20048;-64
2022/09/28 04:26:24;;;;;;;6.35;2.40;;;;;;;10.70;83.22;95467.50;5074514;28;20505;-64
2022/09/28 04:31:41;;;;;;;2.83;2.30;;;;;;;10.79;85.67;95467.91;5074444;28;20063;-64
2022/09/28 04:34:10;;;;;;;5.10;1.90;;;;;;;10.76;85.14;95466.31;5074469;28;20083;-64
2022/09/28 04:36:37;;;;;;;4.65;2.00;;;;;;;10.76;85.77;95473.28;5074309;28;20448;-64
2022/09/28 04:39:06;;;;;;;5.55;1.80;;;;;;;10.83;85.82;95478.09;5074153;28;20045;-64
2022/09/28 04:41:33;;;;;;;4.05;1.90;;;;;;;10.88;85.46;95485.69;5073975;28;20049;-64
2022/09/28 04:44:00;;;;;;;2.63;2.20;;;;;;;10.90;86.13;95485.63;5074420;28;20083;-64
2022/09/28 04:46:27;;;;;;;5.18;1.92;;;;;;;10.92;86.44;95487.22;5074102;28;20045;-64
2022/09/28 04:48:54;;;;;;;11.07;2.15;;;;;;;10.96;85.44;95478.25;5073931;28;20056;-64
2022/09/28 04:51:23;;;;;;;2.47;1.85;;;;;;;10.99;85.08;95490.34;5073992;28;20041;-64
2022/09/28 04:53:51;;;;;;;5.30;2.22;;;;;;;11.02;85.37;95486.69;5073977;28;20045;-64
2022/09/28 04:56:19;;;;;;;1.60;1.50;;;;;;;11.46;87.05;95491.16;5073808;28;20059;-63
2022/09/28 04:58:46;;;;;;;6.72;1.33;;;;;;;12.56;80.75;95495.16;5073787;28;20453;-64
2022/09/28 05:01:16;;;;;;;2.13;1.20;;;;;;;13.86;76.21;95495.59;5073742;28;20053;-64
2022/09/28 05:03:44;;;;;;;3.92;1.15;;;;;;;15.14;70.63;95498.13;5073781;28;20486;-64
2022/09/28 05:06:14;;;;;;;2.17;1.30;;;;;;;16.48;67.20;95504.94;5073503;28;20057;-65
2022/09/28 05:08:45;;;;;;;1.95;1.20;;;;;;;17.75;62.09;95506.28;5073603;28;20048;-65
2022/09/28 05:11:13;;;;;;;;;;;;;;;18.80;58.63;95501.84;5074062;28;20054;-64
2022/09/28 05:13:41;;;;;;;1.45;0.68;;;;;;;19.75;53.97;95500.56;5073574;28;19924;-64
2022/09/28 05:16:10;;;;;;;2.85;0.77;;;;;;;20.45;52.35;95503.94;5073542;28;20417;-65
2022/09/28 05:18:37;;;;;;;1.80;0.90;;;;;;;21.19;51.46;95509.31;5073525;28;20052;-66
2022/09/28 05:21:04;;;;;;;3.58;0.90;;;;;;;21.90;49.16;95506.00;5073656;28;20044;-65
2022/09/28 05:23:31;;;;;;;7.53;1.00;;;;;;;22.57;48.14;95501.94;5073513;28;20052;-64
2022/09/28 05:26:03;;;;;;;2.90;0.63;;;;;;;23.38;46.25;95506.06;5073400;28;20049;-64
2022/09/28 05:28:32;;;;;;;2.53;0.65;;;;;;;23.93;44.85;95495.75;5073311;28;20101;-66
2022/09/28 05:31:00;;;;;;;7.03;0.75;;;;;;;24.48;43.72;95492.53;5073123;28;20516;-65
2022/09/28 05:33:27;;;;;;;7.10;0.82;;;;;;;24.82;42.77;95501.28;5073252;28;20109;-66
2022/09/28 05:35:55;;;;;;;2.35;0.57;;;;;;;25.39;42.32;95502.03;5073255;28;20131;-64
2022/09/28 05:38:22;;;;;;;5.30;0.82;;;;;;;25.84;41.57;95499.56;5073044;28;20494;-64
2022/09/28 05:40:49;;;;;;;1.83;1.13;;;;;;;26.23;41.17;95503.06;5073407;28;20083;-65
2022/09/28 05:43:18;;;;;;;1.10;0.80;;;;;;;26.57;41.32;95494.69;5073115;28;20094;-64
2022/09/28 05:45:45;;;;;;;4.30;0.90;;;;;;;26.86;40.36;95501.09;5073255;28;20049;-64
2022/09/28 05:48:12;;;;;;;3.15;0.80;;;;;;;27.13;40.09;95512.19;5073165;28;20052;-64
2022/09/28 05:50:39;;;;;;;1.85;0.93;;;;;;;27.51;39.46;95505.75;5073229;28;20049;-64
2022/09/28 05:53:08;;;;;;;2.10;0.98;;;;;;;27.56;38.89;95519.47;5073241;28;20127;-65
2022/09/28 05:55:37;;;;;;;2.92;0.98;;;;;;;27.74;39.10;95520.91;5073218;28;20493;-66
2022/09/28 05:58:06;;;;;;;3.38;0.93;;;;;;;28.40;38.41;95518.16;5072963;28;20055;-66
2022/09/28 06:00:36;;;;;;;3.90;1.55;;;;;;;29.12;37.54;95516.13;5073052;28;20080;-66
2022/09/28 06:03:05;;;;;;;3.42;1.05;;;;;;;29.73;36.72;95524.41;5073031;28;20045;-64
2022/09/28 06:05:33;;;;;;;2.13;0.80;;;;;;;30.21;35.55;95524.47;5072823;28;20053;-66
2022/09/28 06:08:03;;;;;;;3.47;0.98;;;;;;;30.35;35.28;95533.38;5033022;28;20048;-65
2022/09/28 06:10:30;;;;;;;1.85;1.00;;;;;;;30.71;34.79;95533.97;5033099;28;20554;-64
2022/09/28 06:12:58;;;;;;;1.58;0.75;;;;;;;31.08;33.95;95539.69;5032916;28;20058;-64
2022/09/28 06:15:27;;;;;;;2.72;0.80;;;;;;;31.37;33.88;95534.84;5033013;28;20410;-67
2022/09/28 06:18:00;;;;;;;2.08;0.90;;;;;;;31.44;34.00;95534.81;5032998;28;20095;-66
2022/09/28 06:20:30;;;;;;;4.68;1.10;;;;;;;31.72;33.44;95538.19;5032941;28;20045;-65
2022/09/28 06:22:57;;;;;;;2.03;1.02;;;;;;;32.00;32.58;95537.00;5032976;28;20097;-67
2022/09/28 06:25:26;;;;;;;3.17;0.85;;;;;;;32.26;32.86;95540.53;5032917;28;20055;-67
2022/09/28 06:27:58;;;;;;;4.25;0.95;;;;;;;32.48;32.23;95537.44;5032805;28;20049;-66
2022/09/28 06:30:26;;;;;;;1.67;0.85;;;;;;;32.32;32.75;95542.34;5032865;28;20049;-64
2022/09/28 06:32:55;;;;;;;1.02;0.90;;;;;;;32.19;33.11;95542.47;5032819;28;20041;-67
2022/09/28 06:35:25;;;;;;;2.65;1.00;;;;;;;32.02;33.58;95543.84;5032762;28;20495;-65
2022/09/28 06:37:54;;;;;;;2.30;1.05;;;;;;;31.90;33.98;95540.13;5032782;28;20140;-65
2022/09/28 06:40:22;;;;;;;5.60;1.00;;;;;;;31.90;33.63;95534.72;5032762;28;20041;-64
2022/09/28 06:42:56;;;;;;;3.47;1.20;;;;;;;31.83;32.93;95533.94;5034365;28;20095;-64
2022/09/28 06:45:23;;;;;;;3.75;0.85;;;;;;;31.39;34.44;95529.19;5036421;28;20045;-67
2022/09/28 06:47:53;;;;;;;2.38;1.30;;;;;;;31.02;35.13;95527.06;5036554;28;20478;-65
2022/09/28 06:50:20;;;;;;;1.98;1.02;;;;;;;30.36;36.46;95529.63;5036507;28;20045;-67
2022/09/28 06:52:52;;;;;;;1.80;1.10;;;;;;;30.01;37.92;95527.97;5036395;28;20564;-67
2022/09/28 06:55:19;;;;;;;2.97;1.17;;;;;;;30.00;38.65;95528.97;5036144;28;20087;-66
2022/09/28 06:57:47;;;;;;;2.67;1.10;;;;;;;29.49;37.89;95523.91;5036162;28;20132;-67
2022/09/28 07:00:15;;;;;;;3.13;1.00;;;;;;;29.05;40.07;95526.03;5036633;28;20053;-63
2022/09/28 07:02:42;;;;;;;3.28;1.00;;;;;;;29.05;40.42;95522.50;5036106;28;20045;-65
2022/09/28 07:05:13;;;;;;;2.65;0.95;;;;;;;29.00;40.89;95525.78;5036022;28;20055;-66
2022/09/28 07:07:43;;;;;;;4.53;0.90;;;;;;;28.91;41.07;95524.25;5071414;28;20041;-66
2022/09/28 07:10:12;;;;;;;1.65;0.75;;;;;;;28.72;40.61;95522.09;5075979;28;20087;-65
2022/09/28 07:12:39;;;;;;;1.35;0.80;;;;;;;28.54;41.13;95532.53;5075893;28;20044;-66
2022/09/28 07:15:07;;;;;;;1.88;0.80;;;;;;;28.47;40.28;95530.63;5075784;28;20071;-67
2022/09/28 07:17:35;;;;;;;2.80;1.00;;;;;;;28.43;40.42;95531.22;5075723;28;20082;-63
2022/09/28 07:20:02;;;;;;;5.13;0.90;;;;;;;28.40;39.99;95535.13;5075778;28;20048;-66
2022/09/28 07:22:29;;;;;;;2.17;1.05;;;;;;;28.40;40.76;95528.91;5075630;28;20051;-65
2022/09/28 07:24:57;;;;;;;1.48;1.05;;;;;;;28.50;40.26;95535.63;5075759;28;20048;-66
2022/09/28 07:27:26;;;;;;;2.22;1.02;;;;;;;28.51;35.37;95541.84;5075760;28;20044;-66
2022/09/28 07:29:53;;;;;;;2.65;0.90;;;;;;;28.56;39.08;95543.94;5075592;28;20048;-64
2022/09/28 07:32:21;;;;;;;1.90;1.10;;;;;;;28.42;37.68;95545.69;5075752;28;20053;-63
2022/09/28 07:34:49;;;;;;;1.42;1.27;;;;;;;28.20;37.33;95543.84;5075776;28;20056;-64
2022/09/28 07:37:17;;;;;;;3.20;0.73;;;;;;;28.05;38.19;95540.41;5075625;28;20048;-65
2022/09/28 07:42:31;;;;;;;1.45;1.00;;;;;;;28.09;38.90;95547.91;5075544;28;20051;-67
2022/09/28 07:44:59;;;;;;;3.13;1.23;;;;;;;28.34;38.70;95541.28;5075351;28;20090;-64
2022/09/28 07:47:26;;;;;;;1.80;1.17;;;;;;;28.47;37.82;95546.75;5075208;28;20441;-65
2022/09/28 07:49:55;;;;;;;3.63;1.10;;;;;;;28.74;39.93;95541.56;5075212;28;20076;-64
2022/09/28 07:52:25;;;;;;;2.20;1.42;;;;;;;28.87;39.43;95554.25;5075132;28;20468;-67
2022/09/28 07:54:53;;;;;;;2.53;1.10;;;;;;;28.88;39.49;95550.56;5075103;28;20052;-65
2022/09/28 07:57:21;;;;;;;3.67;1.25;;;;;;;28.87;39.70;95550.75;5075013;28;20135;-67
2022/09/28 07:59:52;;;;;;;3.70;1.08;;;;;;;28.86;39.22;95549.91;5075206;28;20048;-66
2022/09/28 08:02:20;;;;;;;5.18;1.27;;;;;;;28.66;38.76;95544.41;5075064;28;20409;-67
2022/09/28 08:04:47;;;;;;;1.50;1.13;;;;;;;28.71;41.13;95543.81;5074944;28;20045;-65
2022/09/28 08:07:16;;;;;;;2.60;1.42;;;;;;;28.75;40.70;95545.91;5074695;28;20135;-67
2022/09/28 08:09:43;;;;;;;2.15;1.17;;;;;;;28.43;38.22;95550.03;5074792;28;20050;-64
2022/09/28 08:12:11;;;;;;;1.98;1.33;;;;;;;28.06;41.80;95545.59;5074858;28;20049;-67
2022/09/28 08:14:39;;;;;;;6.25;1.23;;;;;;;28.21;41.09;95542.00;5074722;28;20056;-66
2022/09/28 08:17:09;;;;;;;5.65;1.52;;;;;;;28.09;39.95;95545.22;5074516;28;20055;-65
2022/09/28 08:22:21;;;;;;;2.97;1.60;;;;;;;27.76;41.69;95553.78;5074726;28;19986;-64
2022/09/28 08:24:49;;;;;;;2.28;1.50;;;;;;;27.85;42.00;95558.00;5074576;28;20053;-66
2022/09/28 08:27:17;;;;;;;2.58;1.23;;;;;;;28.02;41.31;95557.72;5074681;28;20049;-67
2022/09/28 08:29:44;;;;;;;2.42;1.20;;;;;;;28.02;38.91;95548.84;5074509;28;20052;-65
2022/09/28 08:32:13;;;;;;;3.60;1.10;;;;;;;28.06;40.98;95547.44;5074284;28;20123;-65
2022/09/28 08:34:41;;;;;;;1.52;1.10;;;;;;;28.08;41.50;95542.72;5074285;28;20048;-66
2022/09/28 08:37:09;;;;;;;3.78;1.65;;;;;;;28.28;39.99;95539.34;5074078;28;20083;-66
2022/09/28 08:39:36;;;;;;;4.60;1.25;;;;;;;28.22;38.90;95538.25;5074380;28;20192;-65
2022/09/28 08:42:17;;;;;;;2.25;1.02;;;;;;;28.18;40.67;95542.38;5074225;28;20179;-67
2022/09/28 08:44:45;;;;;;;;;;;;;;;28.24;39.79;95539.72;5074653;28;20048;-65
2022/09/28 08:50:14;;;;;;;1.85;1.20;;;;;;;28.45;40.32;95540.75;5073998;28;20126;-64
2022/09/28 08:52:43;;;;;;;2.65;1.30;;;;;;;28.38;39.56;95546.06;5073926;28;20132;-66
2022/09/28 08:55:14;;;;;;;1.73;1.10;;;;;;;28.25;38.56;95538.72;5073920;28;20048;-64
2022/09/28 08:57:48;;;;;;;3.30;1.73;;;;;;;28.09;38.90;95533.63;5073668;28;20080;-65
2022/09/28 09:00:21;;;;;;;2.38;1.10;;;;;;;27.97;35.59;95530.63;5073823;28;20490;-67
2022/09/28 09:02:50;;;;;;;2.45;1.63;;;;;;;27.87;39.43;95541.69;5073804;28;20510;-65
2022/09/28 09:05:21;;;;;;;8.38;1.25;;;;;;;27.50;40.84;95539.84;5073391;28;21185;-66
2022/09/28 09:08:08;;;;;;;1.92;1.40;;;;;;;27.50;40.96;95539.00;5073546;28;20501;-65
2022/09/28 09:10:52;;;;;;;1.63;1.15;;;;;;;27.48;42.17;95546.44;5073678;28;20444;-65
2022/09/28 09:13:47;;;;;;;2.03;1.55;;;;;;;27.51;42.27;95546.03;5073743;28;20048;-66
2022/09/28 09:16:28;;;;;;;2.67;1.52;;;;;;;27.54;41.24;95544.84;5073590;28;20452;-65
2022/09/28 09:19:07;;;;;;;5.25;1.10;;;;;;;27.68;41.70;95543.16;5073564;28;20056;-65
2022/09/28 09:21:41;;;;;;;4.27;1.30;;;;;;;27.58;40.90;95544.28;5073626;28;20040;-66
2022/09/28 09:24:26;;;;;;;2.70;1.42;;;;;;;27.25;39.72;95553.63;5073529;28;20063;-64
2022/09/28 09:27:04;;;;;;;4.63;1.27;;;;;;;26.91;40.27;95548.81;5073459;28;20135;-64
2022/09/28 09:29:43;;;;;;;3.20;1.33;;;;;;;26.62;42.18;95546.78;5073390;28;20058;-64
2022/09/28 09:32:25;;;;;;;0.90;0.90;;;;;;;26.24;40.67;95547.59;5073468;28;20049;-64
2022/09/28 09:35:14;;;;;;;4.53;1.30;;;;;;;26.09;41.65;95544.03;5073221;28;20044;-64
2022/09/28 09:38:07;;;;;;;1.40;1.00;;;;;;;25.93;41.90;95543.19;5073295;28;20044;-64
2022/09/28 09:40:53;;;;;;;2.95;1.00;;;;;;;25.77;42.27;95548.66;5073278;28;20045;-66
2022/09/28 09:43:52;;;;;;;3.78;1.25;;;;;;;25.88;41.38;95550.91;5073115;28;20052;-64
2022/09/28 09:46:29;;;;;;;1.42;0.80;;;;;;;26.16;40.96;95546.84;5073350;28;20052;-66
2022/09/28 09:49:01;;;;;;;2.63;1.10;;;;;;;26.46;41.73;95539.72;5073278;28;20076;-64
2022/09/28 09:51:39;;;;;;;2.08;0.90;;;;;;;26.56;38.05;95543.97;5073353;28;20088;-66
2022/09/28 09:54:16;;;;;;;3.47;1.17;;;;;;;26.65;37.76;95544.72;5073104;28;20041;-65
2022/09/28 09:56:48;;;;;;;1.83;1.05;;;;;;;26.68;36.57;95547.03;5073098;28;20090;-65
2022/09/28 09:59:21;;;;;;;2.00;0.80;;;;;;;26.66;36.55;95546.41;5072920;28;20102;-65
2022/09/28 10:01:49;;;;;;;4.25;1.02;;;;;;;26.57;35.08;95533.06;5071517;28;20766;-65
2022/09/28 10:04:21;;;;;;;2.83;0.88;;;;;;;26.53;34.97;95529.09;5072990;28;20052;-66
2022/09/28 10:06:53;;;;;;;1.77;1.13;;;;;;;26.53;36.39;95542.50;5072702;28;20083;-65
2022/09/28 10:09:26;;;;;;;1.90;0.93;;;;;;;26.59;34.48;95533.72;5072896;28;20409;-65
2022/09/28 10:11:54;;;;;;;0.77;0.70;;;;;;;26.51;33.64;95536.47;5072877;28;20102;-64
2022/09/28 10:14:23;;;;;;;4.45;1.10;;;;;;;26.57;35.14;95534.91;5072808;28;20048;-64
2022/09/28 10:16:53;;;;;;;2.00;0.90;;;;;;;26.52;33.21;95534.66;5073105;28;20052;-65
2022/09/28 10:19:26;;;;;;;4.10;0.90;;;;;;;26.40;34.91;95531.59;5076864;28;20501;-64
2022/09/28 10:21:57;;;;;;;1.58;0.70;;;;;;;26.29;35.00;95527.47;5076874;28;20127;-64
2022/09/28 10:24:30;;;;;;;1.45;0.98;;;;;;;26.11;33.77;95524.13;5076958;28;20070;-64
2022/09/28 10:27:03;;;;;;;2.10;1.13;;;;;;;26.15;37.03;95524.56;5076832;28;20044;-64
2022/09/28 10:29:40;;;;;;;2.15;0.90;;;;;;;26.20;35.45;95522.19;5076880;28;20048;-65
2022/09/28 10:32:19;;;;;;;2.13;1.10;;;;;;;26.21;35.35;95523.84;5076680;28;20044;-66
2022/09/28 10:34:46;;;;;;;1.90;0.70;;;;;;;26.24;35.71;95528.84;5076687;28;20072;-65
2022/09/28 10:37:16;;;;;;;2.97;1.02;;;;;;;26.29;36.21;95522.09;5076509;28;20132;-66
2022/09/28 10:39:49;;;;;;;2.45;0.88;;;;;;;26.22;35.81;95513.97;5076475;28;20044;-64
2022/09/28 10:42:21;;;;;;;1.90;1.05;;;;;;;26.13;34.89;95518.56;5076672;28;20127;-65
2022/09/28 10:44:51;;;;;;;5.03;0.95;;;;;;;26.04;36.04;95516.97;5076482;28;20048;-66
2022/09/28 10:47:19;;;;;;;;;;;;;;;26.09;35.91;95511.91;5076774;28;20482;-67
2022/09/28 10:49:49;;;;;;;2.55;1.30;;;;;;;26.12;36.24;95509.69;5076292;28;19927;-64
2022/09/28 10:52:36;;;;;;;1.97;1.00;;;;;;;26.05;34.89;95513.28;5076268;28;20476;-65
2022/09/28 10:55:26;;;;;;;2.42;0.90;;;;;;;25.94;35.83;95493.94;5076224;28;20049;-66
2022/09/28 10:57:53;;;;;;;2.47;1.13;;;;;;;26.02;35.98;95495.72;5076204;28;20515;-65
2022/09/28 11:00:32;;;;;;;2.22;1.00;;;;;;;26.07;37.23;95493.31;5076146;28;20090;-65
2022/09/28 11:03:01;;;;;;;5.97;1.13;;;;;;;25.99;36.38;95493.41;5076122;28;20474;-64
2022/09/28 11:05:28;;;;;;;2.40;1.30;;;;;;;26.09;35.73;95491.31;5076024;28;20048;-64
2022/09/28 11:07:59;;;;;;;2.22;1.00;;;;;;;26.12;36.05;95488.25;5075833;28;20082;-65
2022/09/28 11:10:29;;;;;;;1.95;1.02;;;;;;;26.18;36.05;95481.34;5076079;28;20136;-65
2022/09/28 11:12:57;;;;;;;3.10;1.20;;;;;;;26.21;35.54;95482.81;5076157;28;20055;-64
2022/09/28 11:15:28;;;;;;;3.60;0.95;;;;;;;26.08;35.88;95483.44;5076093;28;20072;-65
2022/09/28 11:17:56;;;;;;;1.90;1.10;;;;;;;26.13;34.73;95486.44;5075812;28;20052;-65
2022/09/28 11:20:34;;;;;;;2.72;1.00;;;;;;;26.17;34.01;95485.03;5075835;28;20080;-65
2022/09/28 11:23:19;;;;;;;4.28;0.93;;;;;;;26.22;34.60;95476.47;5075719;28;20454;-64
2022/09/28 11:25:57;;;;;;;4.60;1.20;;;;;;;26.25;33.22;95479.59;5075763;28;20440;-64
2022/09/28 11:28:31;;;;;;;3.30;0.95;;;;;;;26.37;31.75;95482.69;5075091;28;20139;-65
2022/09/28 11:31:00;;;;;;;2.53;0.82;;;;;;;26.33;32.61;95483.22;5075734;28;20207;-64
2022/09/28 11:33:32;;;;;;;1.52;0.80;;;;;;;26.34;32.36;95475.00;5075606;28;20056;-64
2022/09/28 11:36:11;;;;;;;1.73;0.90;;;;;;;26.37;32.16;95466.59;5075573;28;20387;-66
2022/09/28 11:38:50;;;;;;;3.20;0.80;;;;;;;26.34;31.18;95468.84;5075546;28;20428;-64
2022/09/28 11:41:32;;;;;;;2.42;0.90;;;;;;;26.30;32.10;95464.84;5075388;28;20501;-65
2022/09/28 11:44:21;;;;;;;0.80;0.80;;;;;;;26.36;33.58;95466.78;5075410;28;20487;-65
2022/09/28 11:46:57;;;;;;;5.72;1.05;;;;;;;26.33;33.07;95457.28;5075389;28;20049;-66
2022/09/28 11:49:31;;;;;;;0.95;0.82;;;;;;;26.34;32.49;95461.59;5075312;28;20139;-64
2022/09/28 11:52:03;;;;;;;2.58;0.90;;;;;;;26.43;32.71;95456.19;5075259;28;20044;-66
2022/09/28 11:54:40;;;;;;;4.50;0.90;;;;;;;26.53;31.22;95456.72;5075170;28;20044;-65
2022/09/28 11:57:14;;;;;;;2.95;1.00;;;;;;;26.60;31.46;95451.44;5075202;28;20044;-65
2022/09/28 11:59:50;;;;;;;1.05;0.90;;;;;;;26.58;31.07;95446.25;5075237;28;20084;-65
2022/09/28 12:02:23;;;;;;;2.88;0.80;;;;;;;26.54;29.45;95446.81;5075147;28;20080;-65
2022/09/28 12:04:56;;;;;;;1.67;0.80;;;;;;;26.64;29.59;95454.59;5075176;28;20410;-67
2022/09/28 12:07:30;;;;;;;1.35;0.60;;;;;;;26.66;29.29;95456.06;5074615;28;20045;-64
2022/09/28 12:10:09;;;;;;;2.30;0.73;;;;;;;26.61;28.01;95450.44;5074963;28;20134;-64
2022/09/28 12:12:41;;;;;;;2.70;0.90;;;;;;;26.55;28.06;95448.50;5074834;28;20044;-66
2022/09/28 12:15:16;;;;;;;0.98;0.68;;;;;;;26.51;30.17;95456.06;5074724;28;20048;-65